createdAt,value
2019-05-20T00:00:02.423Z,100751.72
2019-05-20T00:02:35.081Z,100760.38
2019-05-20T00:05:08.529Z,100753.73
2019-05-20T00:07:40.256Z,100763.73
2019-05-20T00:10:14.891Z,100759.59
2019-05-20T00:12:46.923Z,100770.55
2019-05-20T00:15:19.877Z,100772.01
2019-05-20T00:17:52.516Z,100771.86
2019-05-20T00:20:25.303Z,100779.06
2019-05-20T00:22:57.369Z,100775.25
2019-05-20T00:25:29.708Z,100781.19
2019-05-20T00:28:02.555Z,100781.82
2019-05-20T00:30:35.446Z,100790.81
2019-05-20T00:33:08.025Z,100798.19
2019-05-20T00:35:42.670Z,100799.24
2019-05-20T00:38:14.608Z,100792.94
2019-05-20T00:40:47.598Z,100813.94
2019-05-20T00:43:25.211Z,100812.00
2019-05-20T00:45:58.614Z,100818.44
2019-05-20T00:48:31.703Z,100817.64
2019-05-20T00:51:04.365Z,100817.06
2019-05-20T00:53:40.494Z,100824.31
2019-05-20T00:56:15.180Z,100824.70
2019-05-20T00:58:48.849Z,100830.63
2019-05-20T01:01:21.351Z,100835.66
2019-05-20T01:03:53.893Z,100833.22
2019-05-20T01:06:25.965Z,100834.83
2019-05-20T01:08:58.905Z,100843.00
2019-05-20T01:11:34.962Z,100844.45
2019-05-20T01:14:08.388Z,100842.20
2019-05-20T01:16:40.969Z,100849.11
2019-05-20T01:19:14.096Z,100844.27
2019-05-20T01:21:49.560Z,100853.48
2019-05-20T01:24:26.221Z,100842.58
2019-05-20T01:26:58.491Z,100845.91
2019-05-20T01:29:31.172Z,100842.58
2019-05-20T01:32:05.293Z,100845.30
2019-05-20T01:34:41.085Z,100846.94
2019-05-20T01:37:16.174Z,100850.82
2019-05-20T01:39:48.661Z,100851.78
2019-05-20T01:42:22.440Z,100854.56
2019-05-20T01:44:54.943Z,100859.37
2019-05-20T01:47:27.537Z,100856.20
2019-05-20T01:50:00.173Z,100855.56
2019-05-20T01:52:34.014Z,100855.16
2019-05-20T01:55:09.053Z,100863.88
2019-05-20T01:57:41.716Z,100868.51
2019-05-20T02:00:14.655Z,100866.80
2019-05-20T02:02:47.050Z,100872.14
2019-05-20T02:05:18.807Z,100873.55
2019-05-20T02:07:51.051Z,100874.75
2019-05-20T02:10:23.497Z,100879.32
2019-05-20T02:12:55.986Z,100874.05
2019-05-20T02:15:30.556Z,100877.30
2019-05-20T02:18:03.131Z,100878.36
2019-05-20T02:20:35.928Z,100885.64
2019-05-20T02:23:09.954Z,100894.00
2019-05-20T02:25:46.570Z,100888.79
2019-05-20T02:28:17.149Z,100890.34
2019-05-20T02:30:49.413Z,100887.92
2019-05-20T02:33:21.642Z,100894.87
2019-05-20T02:35:54.592Z,100890.80
2019-05-20T02:38:27.354Z,100887.89
2019-05-20T02:40:59.544Z,100897.56
2019-05-20T02:43:31.635Z,100904.16
2019-05-20T02:46:04.236Z,100903.12
2019-05-20T02:48:37.678Z,100900.58
2019-05-20T02:51:09.702Z,100911.36
2019-05-20T02:53:42.588Z,100908.30
2019-05-20T02:56:18.834Z,100906.69
2019-05-20T02:58:51.756Z,100904.64
2019-05-20T03:01:23.824Z,100900.61
2019-05-20T03:04:10.609Z,100899.77
2019-05-20T03:06:33.045Z,100908.86
2019-05-20T14:45:57.168Z,100736.25
2019-05-20T14:48:29.855Z,100751.25
2019-05-20T14:51:03.347Z,100752.58
2019-05-20T14:53:48.054Z,100751.83
2019-05-20T14:56:27.966Z,100759.70
2019-05-20T14:59:07.037Z,100763.10
2019-05-20T15:01:47.318Z,100780.22
2019-05-20T15:04:20.735Z,100777.06
2019-05-20T15:06:52.900Z,100776.33
2019-05-20T15:09:25.188Z,100782.00
2019-05-20T15:11:57.043Z,100782.44
2019-05-20T15:14:33.835Z,100789.72
2019-05-20T15:17:14.796Z,100797.43
2019-05-20T15:19:55.293Z,100799.27
2019-05-20T15:22:33.938Z,100808.25
2019-05-20T15:25:13.709Z,100810.83
2019-05-20T15:27:49.587Z,100806.87
2019-05-20T15:30:21.507Z,100797.20
2019-05-20T15:32:55.038Z,100800.64
2019-05-20T15:35:28.258Z,100798.89
2019-05-20T15:38:01.476Z,100812.12
2019-05-20T15:40:33.676Z,100799.37
2019-05-20T15:43:07.326Z,100807.72
2019-05-20T15:45:47.055Z,100802.53
2019-05-20T15:48:25.002Z,100807.72
2019-05-20T15:50:57.032Z,100814.69
2019-05-20T15:53:30.232Z,100818.11
2019-05-20T15:56:03.669Z,100816.98
2019-05-20T15:58:36.291Z,100821.35
2019-05-20T16:01:09.386Z,100817.39
2019-05-20T16:03:41.788Z,100815.42
2019-05-20T16:06:15.331Z,100820.20
2019-05-20T16:08:48.062Z,100812.17
2019-05-20T16:11:20.705Z,100811.77
2019-05-20T16:14:00.800Z,100814.86
2019-05-20T16:16:33.570Z,100818.67
2019-05-20T16:19:06.540Z,100813.50
2019-05-20T16:21:47.847Z,100820.70
2019-05-20T16:24:28.803Z,100819.73
2019-05-20T16:27:02.131Z,100830.85
2019-05-20T16:29:35.081Z,100833.78
2019-05-20T16:32:08.101Z,100833.44
2019-05-20T16:34:41.750Z,100828.09
2019-05-20T16:37:15.099Z,100822.07
2019-05-20T16:39:48.395Z,100823.95
2019-05-20T16:42:21.720Z,100820.94
2019-05-20T16:44:54.137Z,100819.24
2019-05-20T16:47:27.205Z,100823.80
2019-05-20T16:50:00.081Z,100822.16
2019-05-20T16:52:38.514Z,100828.58
2019-05-20T16:55:19.919Z,100828.34
2019-05-20T16:57:52.087Z,100833.59
2019-05-20T17:00:32.011Z,100836.21
2019-05-20T17:03:02.369Z,100824.75
2019-05-20T17:05:47.873Z,100817.14
2019-05-20T17:08:26.929Z,100818.82
2019-05-20T17:11:00.035Z,100807.23
2019-05-20T17:13:32.807Z,100801.38
2019-05-20T17:16:14.096Z,100801.58
2019-05-20T17:18:49.838Z,100791.99
2019-05-20T17:21:23.216Z,100792.15
2019-05-20T17:23:55.924Z,100791.66
2019-05-20T17:26:31.029Z,100788.67
2019-05-20T17:29:06.214Z,100788.02
2019-05-20T17:31:45.842Z,100775.44
2019-05-20T17:34:19.341Z,100762.05
2019-05-20T17:36:52.405Z,100765.79
2019-05-20T17:39:25.413Z,100763.77
2019-05-20T17:41:58.136Z,100758.25
2019-05-20T17:44:31.034Z,100757.94
2019-05-20T17:47:05.725Z,100757.36
2019-05-20T17:49:45.858Z,100771.22
2019-05-20T17:52:24.791Z,100763.28
2019-05-20T17:54:57.150Z,100767.08
2019-05-20T17:57:38.197Z,100767.91
2019-05-20T18:00:13.915Z,100757.03
2019-05-20T18:02:46.914Z,100750.31
2019-05-20T18:05:20.243Z,100742.34
2019-05-20T18:07:53.694Z,100739.58
2019-05-20T18:10:27.006Z,100756.38
2019-05-20T18:13:01.596Z,100751.09
2019-05-20T18:15:37.930Z,100754.19
2019-05-20T18:18:11.206Z,100748.76
2019-05-20T18:20:46.179Z,100748.91
2019-05-20T18:23:24.803Z,100746.73
2019-05-20T18:25:57.484Z,100740.47
2019-05-20T18:28:35.094Z,100746.66
2019-05-20T18:31:07.828Z,100749.00
2019-05-20T18:33:40.356Z,100756.63
2019-05-20T18:36:12.734Z,100756.14
2019-05-20T18:38:44.964Z,100762.31
2019-05-20T18:41:17.572Z,100759.23
2019-05-20T18:43:51.331Z,100752.08
2019-05-20T18:46:24.255Z,100743.40
2019-05-20T18:48:57.461Z,100740.97
2019-05-20T18:51:31.149Z,100730.34
2019-05-20T18:54:14.923Z,100726.47
2019-05-20T18:56:47.772Z,100728.08
2019-05-20T18:59:20.661Z,100717.61
2019-05-20T19:02:04.947Z,100716.72
2019-05-20T19:04:30.619Z,100709.84
2019-05-20T19:07:02.986Z,100702.50
2019-05-20T19:09:43.015Z,100700.80
2019-05-20T19:12:17.121Z,100697.08
2019-05-20T19:14:50.279Z,100687.26
2019-05-20T19:17:23.018Z,100685.16
2019-05-20T19:20:02.654Z,100683.94
2019-05-20T19:22:43.066Z,100668.45
2019-05-20T19:25:16.957Z,100673.09
2019-05-20T19:27:49.573Z,100669.03
2019-05-20T19:30:23.394Z,100667.17
2019-05-20T19:32:56.300Z,100664.08
2019-05-20T19:35:29.450Z,100664.18
2019-05-20T19:38:02.419Z,100668.21
2019-05-20T19:40:41.245Z,100670.39
2019-05-20T19:43:21.275Z,100679.72
2019-05-20T19:45:54.776Z,100678.61
2019-05-20T19:48:34.998Z,100675.26
2019-05-20T19:51:07.663Z,100676.88
2019-05-20T19:53:40.881Z,100673.00
2019-05-20T19:56:13.762Z,100670.43
2019-05-20T19:58:54.134Z,100662.88
2019-05-20T20:01:26.929Z,100655.97
2019-05-20T20:04:02.511Z,100653.55
2019-05-20T20:06:35.235Z,100654.52
2019-05-20T20:09:09.727Z,100659.95
2019-05-20T20:11:42.957Z,100657.53
2019-05-20T20:14:15.227Z,100666.52
2019-05-20T20:16:47.429Z,100655.04
2019-05-20T20:19:20.432Z,100653.13
2019-05-20T20:21:59.771Z,100656.05
2019-05-20T20:24:32.277Z,100656.94
2019-05-20T20:27:04.940Z,100651.27
2019-05-20T20:29:49.811Z,100659.88
2019-05-20T20:32:36.673Z,100658.31
2019-05-20T20:34:57.050Z,100655.41
2019-05-20T20:37:36.750Z,100654.18
2019-05-20T20:40:09.362Z,100659.80
2019-05-20T20:42:42.384Z,100666.83
2019-05-20T20:45:15.674Z,100661.56
2019-05-20T20:47:48.797Z,100669.52
2019-05-20T20:50:28.042Z,100674.54
2019-05-20T20:53:01.080Z,100688.09
2019-05-20T20:55:35.467Z,100695.22
2019-05-20T20:58:08.295Z,100691.00
2019-05-20T21:00:41.726Z,100695.77
2019-05-20T21:03:21.795Z,100695.95
2019-05-20T21:05:54.613Z,100701.61
2019-05-20T21:08:29.000Z,100706.98
2019-05-20T21:11:02.602Z,100710.36
2019-05-20T21:13:37.326Z,100714.20
2019-05-20T21:16:11.199Z,100712.98
2019-05-20T21:18:44.387Z,100726.83
2019-05-20T21:21:16.700Z,100721.60
2019-05-20T21:23:49.596Z,100721.87
2019-05-20T21:26:28.842Z,100722.73
2019-05-20T21:29:01.845Z,100716.29
2019-05-20T21:31:41.048Z,100724.14
2019-05-20T21:34:21.709Z,100726.73
2019-05-20T21:36:54.883Z,100719.36
2019-05-20T21:39:27.588Z,100719.11
2019-05-20T21:42:00.712Z,100711.52
2019-05-20T21:44:33.860Z,100711.09
2019-05-20T21:47:06.897Z,100708.55
2019-05-20T21:49:45.818Z,100704.67
2019-05-20T21:52:18.721Z,100706.94
2019-05-20T21:54:57.895Z,100704.20
2019-05-20T21:57:30.480Z,100700.47
2019-05-20T22:00:02.974Z,100707.38
2019-05-20T22:02:37.470Z,100715.14
2019-05-20T22:05:11.092Z,100712.56
2019-05-20T22:07:47.191Z,100704.92
2019-05-20T22:10:20.238Z,100709.00
2019-05-20T22:12:54.809Z,100715.89
2019-05-20T22:18:25.670Z,100708.73
2019-05-20T22:20:59.839Z,100709.41
2019-05-20T22:23:33.782Z,100708.03
2019-05-20T22:26:07.019Z,100709.25
2019-05-20T22:28:40.079Z,100704.69
2019-05-20T22:31:20.623Z,100702.69
2019-05-20T22:34:00.872Z,100701.04
2019-05-20T22:36:33.632Z,100709.40
2019-05-20T22:39:08.536Z,100710.44
2019-05-20T22:41:47.913Z,100708.16
2019-05-20T22:44:20.870Z,100710.03
